Check out our new PWSWeather beta!
PWSweather.com
Personal Weather Stations
Station Observations
ROSEGARDEN
Rose Garden, Brentwood, CA 94513

Rose GardenBrentwood, CA 94513

Lat: 37.967503, Lon: -121.721004

Elevation: 89

Station Type: Davis Vantage Vue

High Low Average
Temperature 70.2°F21.2°C 52.3°F11.3°C 59.5°F15.3°C
Dew Point 55.0°F12.8°C -1.0°F-18.3°C 47.6°F8.7°C
Winds 4.1 mph 6.6 kmh Calm Calm 1.0 mph S1.6 kmh S
Wind Gusts 9.0 mph14.5 kmh -- 2.0 mph3.2 kmh
Humidity 87% 45% 68%
Pressure 30.01 in1016.3 mb 29.84 in1010.5 mb -
Precipitation 0.08 in2.0 mm - -
Hour Temp Dew Point Humidity Winds Wind Gusts Pressure Precip Precip Rate Daily Precip Total
12:00 AM 56.5°F13.6°C 45.0°F7.2°C 66% Calm Calm -- 30.01 in1016.3 mb 0.00 in0.0 mm 0.00 in0.0 mm 0.00 in0.0 mm
12:10 AM 56.1°F13.4°C 45.0°F7.2°C 67% Calm Calm -- 30.01 in1016.3 mb 0.00 in0.0 mm 0.00 in0.0 mm 0.00 in0.0 mm
12:20 AM 55.9°F13.3°C 45.0°F7.2°C 66% 0.5 mph WSW0.8 kmh WSW 1.0 mph1.6 kmh 30.00 in1015.9 mb 0.00 in0.0 mm 0.00 in0.0 mm 0.00 in0.0 mm
12:30 AM 55.8°F13.2°C 44.0°F6.7°C 66% 0.4 mph W0.6 kmh W 2.0 mph3.2 kmh 30.00 in1015.9 mb 0.00 in0.0 mm 0.00 in0.0 mm 0.00 in0.0 mm
12:40 AM 55.8°F13.2°C 45.0°F7.2°C 67% 0.2 mph W0.3 kmh W 1.0 mph1.6 kmh 30.00 in1015.9 mb 0.00 in0.0 mm 0.00 in0.0 mm 0.00 in0.0 mm
12:50 AM 55.7°F13.2°C 44.0°F6.7°C 66% 0.9 mph SW1.4 kmh SW 3.0 mph4.8 kmh 30.00 in1015.9 mb 0.00 in0.0 mm 0.00 in0.0 mm 0.00 in0.0 mm
01:00 AM 55.7°F13.2°C 43.0°F6.1°C 63% 0.2 mph SW0.3 kmh SW 2.0 mph3.2 kmh 30.00 in1015.9 mb 0.00 in0.0 mm 0.00 in0.0 mm 0.00 in0.0 mm
01:10 AM 55.6°F13.1°C 43.0°F6.1°C 62% 0.5 mph W0.8 kmh W 1.0 mph1.6 kmh 30.00 in1015.9 mb 0.00 in0.0 mm 0.00 in0.0 mm 0.00 in0.0 mm
01:20 AM 55.3°F12.9°C 44.0°F6.7°C 67% 0.2 mph NW0.3 kmh NW 1.0 mph1.6 kmh 30.00 in1015.9 mb 0.00 in0.0 mm 0.00 in0.0 mm 0.00 in0.0 mm
01:30 AM 55.5°F13.1°C 47.0°F8.3°C 72% 0.4 mph W0.6 kmh W 3.0 mph4.8 kmh 30.00 in1015.9 mb 0.00 in0.0 mm 0.00 in0.0 mm 0.00 in0.0 mm
01:40 AM 55.6°F13.1°C 47.0°F8.3°C 73% 0.4 mph W0.6 kmh W 2.0 mph3.2 kmh 29.99 in1015.6 mb 0.00 in0.0 mm 0.00 in0.0 mm 0.00 in0.0 mm
01:50 AM 55.3°F12.9°C 47.0°F8.3°C 73% Calm Calm -- 29.99 in1015.6 mb 0.00 in0.0 mm 0.00 in0.0 mm 0.00 in0.0 mm
02:00 AM 55.0°F12.8°C 46.0°F7.8°C 73% Calm Calm -- 29.98 in1015.2 mb 0.00 in0.0 mm 0.00 in0.0 mm 0.00 in0.0 mm
02:10 AM 54.9°F12.7°C 46.0°F7.8°C 72% Calm Calm -- 29.98 in1015.2 mb 0.00 in0.0 mm 0.00 in0.0 mm 0.00 in0.0 mm
02:20 AM 54.8°F12.7°C 46.0°F7.8°C 72% Calm Calm -- 29.98 in1015.2 mb 0.00 in0.0 mm 0.00 in0.0 mm 0.00 in0.0 mm
02:30 AM 54.4°F12.4°C 45.0°F7.2°C 71% Calm Calm -- 29.98 in1015.2 mb 0.00 in0.0 mm 0.00 in0.0 mm 0.00 in0.0 mm
02:40 AM 54.1°F12.3°C 45.0°F7.2°C 72% Calm Calm -- 29.98 in1015.2 mb 0.00 in0.0 mm 0.00 in0.0 mm 0.00 in0.0 mm
02:50 AM 53.7°F12.1°C 45.0°F7.2°C 72% Calm Calm -- 29.98 in1015.2 mb 0.00 in0.0 mm 0.00 in0.0 mm 0.00 in0.0 mm
03:00 AM 53.9°F12.2°C 44.0°F6.7°C 70% Calm Calm -- 29.98 in1015.2 mb 0.00 in0.0 mm 0.00 in0.0 mm 0.00 in0.0 mm
03:10 AM 54.1°F12.3°C 45.0°F7.2°C 71% 0.4 mph ENE0.6 kmh ENE 2.0 mph3.2 kmh 29.98 in1015.2 mb 0.00 in0.0 mm 0.00 in0.0 mm 0.00 in0.0 mm
03:20 AM 53.8°F12.1°C 44.0°F6.7°C 70% Calm Calm -- 29.98 in1015.2 mb 0.00 in0.0 mm 0.00 in0.0 mm 0.00 in0.0 mm
03:30 AM 53.8°F12.1°C 45.0°F7.2°C 71% Calm Calm -- 29.98 in1015.2 mb 0.00 in0.0 mm 0.00 in0.0 mm 0.00 in0.0 mm
03:40 AM 53.5°F11.9°C 45.0°F7.2°C 72% Calm Calm -- 29.97 in1014.9 mb 0.00 in0.0 mm 0.00 in0.0 mm 0.00 in0.0 mm
03:50 AM 53.1°F11.7°C 45.0°F7.2°C 74% Calm Calm -- 29.97 in1014.9 mb 0.00 in0.0 mm 0.00 in0.0 mm 0.00 in0.0 mm
04:00 AM 53.0°F11.7°C 45.0°F7.2°C 75% Calm Calm -- 29.97 in1014.9 mb 0.00 in0.0 mm 0.00 in0.0 mm 0.00 in0.0 mm
04:10 AM 52.7°F11.5°C 45.0°F7.2°C 74% Calm Calm -- 29.97 in1014.9 mb 0.00 in0.0 mm 0.00 in0.0 mm 0.00 in0.0 mm
04:20 AM 52.5°F11.4°C 45.0°F7.2°C 75% Calm Calm -- 29.97 in1014.9 mb 0.00 in0.0 mm 0.00 in0.0 mm 0.00 in0.0 mm
04:30 AM 52.4°F11.3°C 45.0°F7.2°C 76% Calm Calm -- 29.97 in1014.9 mb 0.00 in0.0 mm 0.00 in0.0 mm 0.00 in0.0 mm
04:40 AM 52.5°F11.4°C 45.0°F7.2°C 76% Calm Calm -- 29.97 in1014.9 mb 0.00 in0.0 mm 0.00 in0.0 mm 0.00 in0.0 mm
04:50 AM 52.6°F11.4°C 45.0°F7.2°C 76% Calm Calm -- 29.97 in1014.9 mb 0.00 in0.0 mm 0.00 in0.0 mm 0.00 in0.0 mm
05:00 AM 52.8°F11.6°C -1.0°F-18.3°C 75% - SE SE -- 29.97 in1014.9 mb 0.00 in0.0 mm 0.00 in0.0 mm 0.00 in0.0 mm
05:10 AM 52.6°F11.4°C 45.0°F7.2°C 76% Calm Calm -- 29.97 in1014.9 mb 0.00 in0.0 mm 0.00 in0.0 mm 0.00 in0.0 mm
05:20 AM 52.6°F11.4°C 45.0°F7.2°C 75% Calm Calm -- 29.97 in1014.9 mb 0.00 in0.0 mm 0.00 in0.0 mm 0.00 in0.0 mm
05:30 AM 52.6°F11.4°C 45.0°F7.2°C 75% Calm Calm -- 29.97 in1014.9 mb 0.00 in0.0 mm 0.00 in0.0 mm 0.00 in0.0 mm
05:40 AM 52.4°F11.3°C 45.0°F7.2°C 76% Calm Calm -- 29.96 in1014.6 mb 0.00 in0.0 mm 0.00 in0.0 mm 0.00 in0.0 mm
05:50 AM 52.3°F11.3°C 45.0°F7.2°C 76% Calm Calm -- 29.96 in1014.6 mb 0.00 in0.0 mm 0.00 in0.0 mm 0.00 in0.0 mm
06:00 AM 52.4°F11.3°C 45.0°F7.2°C 76% 0.3 mph SW0.5 kmh SW 2.0 mph3.2 kmh 29.96 in1014.6 mb 0.00 in0.0 mm 0.00 in0.0 mm 0.00 in0.0 mm
06:10 AM 52.8°F11.6°C 45.0°F7.2°C 75% 0.7 mph SW1.1 kmh SW 2.0 mph3.2 kmh 29.97 in1014.9 mb 0.00 in0.0 mm 0.00 in0.0 mm 0.00 in0.0 mm
06:20 AM 52.9°F11.6°C 44.0°F6.7°C 73% 1.1 mph SW1.8 kmh SW 3.0 mph4.8 kmh 29.97 in1014.9 mb 0.00 in0.0 mm 0.00 in0.0 mm 0.00 in0.0 mm
06:30 AM 53.2°F11.8°C 45.0°F7.2°C 73% 0.6 mph SW1.0 kmh SW 2.0 mph3.2 kmh 29.97 in1014.9 mb 0.00 in0.0 mm 0.00 in0.0 mm 0.00 in0.0 mm
06:40 AM 53.5°F11.9°C 45.0°F7.2°C 73% 0.8 mph SW1.3 kmh SW 2.0 mph3.2 kmh 29.98 in1015.2 mb 0.00 in0.0 mm 0.00 in0.0 mm 0.00 in0.0 mm
06:50 AM 54.1°F12.3°C 45.0°F7.2°C 71% 1.1 mph WSW1.8 kmh WSW 3.0 mph4.8 kmh 29.98 in1015.2 mb 0.00 in0.0 mm 0.00 in0.0 mm 0.00 in0.0 mm
07:00 AM 54.7°F12.6°C 45.0°F7.2°C 70% 0.8 mph W1.3 kmh W 2.0 mph3.2 kmh 29.98 in1015.2 mb 0.00 in0.0 mm 0.00 in0.0 mm 0.00 in0.0 mm
07:10 AM 55.3°F12.9°C 46.0°F7.8°C 70% 0.7 mph SW1.1 kmh SW 1.0 mph1.6 kmh 29.98 in1015.2 mb 0.00 in0.0 mm 0.00 in0.0 mm 0.00 in0.0 mm
07:20 AM 55.7°F13.2°C 46.0°F7.8°C 69% Calm Calm 1.0 mph1.6 kmh 29.98 in1015.2 mb 0.00 in0.0 mm 0.00 in0.0 mm 0.00 in0.0 mm
07:30 AM 56.1°F13.4°C 46.0°F7.8°C 69% 0.7 mph SW1.1 kmh SW 2.0 mph3.2 kmh 29.98 in1015.2 mb 0.00 in0.0 mm 0.00 in0.0 mm 0.00 in0.0 mm
07:40 AM 56.7°F13.7°C 46.0°F7.8°C 68% 1.1 mph S1.8 kmh S 2.0 mph3.2 kmh 29.98 in1015.2 mb 0.00 in0.0 mm 0.00 in0.0 mm 0.00 in0.0 mm
07:50 AM 57.1°F13.9°C 47.0°F8.3°C 69% 1.2 mph SW1.9 kmh SW 3.0 mph4.8 kmh 29.98 in1015.2 mb 0.00 in0.0 mm 0.00 in0.0 mm 0.00 in0.0 mm
08:00 AM 57.9°F14.4°C 47.0°F8.3°C 68% 0.7 mph SW1.1 kmh SW 2.0 mph3.2 kmh 29.98 in1015.2 mb 0.00 in0.0 mm 0.00 in0.0 mm 0.00 in0.0 mm
08:10 AM 58.5°F14.7°C 47.0°F8.3°C 66% 0.8 mph SW1.3 kmh SW 2.0 mph3.2 kmh 29.98 in1015.2 mb 0.00 in0.0 mm 0.00 in0.0 mm 0.00 in0.0 mm
08:20 AM 58.9°F14.9°C 47.0°F8.3°C 64% 0.6 mph WSW1.0 kmh WSW 2.0 mph3.2 kmh 29.98 in1015.2 mb 0.00 in0.0 mm 0.00 in0.0 mm 0.00 in0.0 mm
08:30 AM 59.9°F15.5°C 46.0°F7.8°C 60% 0.4 mph WSW0.6 kmh WSW 3.0 mph4.8 kmh 29.98 in1015.2 mb 0.00 in0.0 mm 0.00 in0.0 mm 0.00 in0.0 mm
08:40 AM 60.9°F16.1°C 47.0°F8.3°C 60% Calm Calm 1.0 mph1.6 kmh 29.98 in1015.2 mb 0.00 in0.0 mm 0.00 in0.0 mm 0.00 in0.0 mm
08:50 AM 62.0°F16.7°C 46.0°F7.8°C 57% 0.4 mph WSW0.6 kmh WSW 3.0 mph4.8 kmh 29.98 in1015.2 mb 0.00 in0.0 mm 0.00 in0.0 mm 0.00 in0.0 mm
09:00 AM 62.3°F16.8°C 45.0°F7.2°C 54% 0.2 mph SW0.3 kmh SW 1.0 mph1.6 kmh 29.98 in1015.2 mb 0.00 in0.0 mm 0.00 in0.0 mm 0.00 in0.0 mm
09:10 AM 62.7°F17.1°C 46.0°F7.8°C 54% 1.0 mph SSW1.6 kmh SSW 3.0 mph4.8 kmh 29.98 in1015.2 mb 0.00 in0.0 mm 0.00 in0.0 mm 0.00 in0.0 mm
09:20 AM 63.4°F17.4°C 47.0°F8.3°C 55% 0.3 mph N0.5 kmh N 2.0 mph3.2 kmh 29.98 in1015.2 mb 0.00 in0.0 mm 0.00 in0.0 mm 0.00 in0.0 mm
09:30 AM 64.3°F17.9°C 48.0°F8.9°C 55% 0.4 mph S0.6 kmh S 2.0 mph3.2 kmh 29.98 in1015.2 mb 0.00 in0.0 mm 0.00 in0.0 mm 0.00 in0.0 mm
09:40 AM 64.7°F18.2°C 46.0°F7.8°C 51% 0.7 mph SE1.1 kmh SE 3.0 mph4.8 kmh 29.98 in1015.2 mb 0.00 in0.0 mm 0.00 in0.0 mm 0.00 in0.0 mm
09:50 AM 64.5°F18.1°C 47.0°F8.3°C 54% 1.2 mph SW1.9 kmh SW 3.0 mph4.8 kmh 29.98 in1015.2 mb 0.00 in0.0 mm 0.00 in0.0 mm 0.00 in0.0 mm
10:00 AM 65.0°F18.3°C 46.0°F7.8°C 51% 1.9 mph SSE3.1 kmh SSE 4.0 mph6.4 kmh 29.98 in1015.2 mb 0.00 in0.0 mm 0.00 in0.0 mm 0.00 in0.0 mm
10:10 AM 66.0°F18.9°C 46.0°F7.8°C 49% 1.1 mph S1.8 kmh S 3.0 mph4.8 kmh 29.98 in1015.2 mb 0.00 in0.0 mm 0.00 in0.0 mm 0.00 in0.0 mm
10:20 AM 66.5°F19.2°C 46.0°F7.8°C 48% 1.0 mph SSE1.6 kmh SSE 3.0 mph4.8 kmh 29.98 in1015.2 mb 0.00 in0.0 mm 0.00 in0.0 mm 0.00 in0.0 mm
10:30 AM 67.2°F19.6°C 47.0°F8.3°C 48% 1.4 mph SW2.3 kmh SW 3.0 mph4.8 kmh 29.97 in1014.9 mb 0.00 in0.0 mm 0.00 in0.0 mm 0.00 in0.0 mm
10:40 AM 67.8°F19.9°C 47.0°F8.3°C 47% 1.6 mph SSW2.6 kmh SSW 4.0 mph6.4 kmh 29.97 in1014.9 mb 0.00 in0.0 mm 0.00 in0.0 mm 0.00 in0.0 mm
11:00 AM 68.7°F20.4°C 48.0°F8.9°C 48% 0.7 mph NW1.1 kmh NW 3.0 mph4.8 kmh 29.96 in1014.6 mb 0.00 in0.0 mm 0.00 in0.0 mm 0.00 in0.0 mm
11:10 AM 68.8°F20.4°C 48.0°F8.9°C 47% 1.1 mph SE1.8 kmh SE 3.0 mph4.8 kmh 29.96 in1014.6 mb 0.00 in0.0 mm 0.00 in0.0 mm 0.00 in0.0 mm
11:20 AM 69.6°F20.9°C 48.0°F8.9°C 46% 0.6 mph E1.0 kmh E 3.0 mph4.8 kmh 29.95 in1014.2 mb 0.00 in0.0 mm 0.00 in0.0 mm 0.00 in0.0 mm
11:30 AM 69.1°F20.6°C 47.0°F8.3°C 46% 1.1 mph NE1.8 kmh NE 3.0 mph4.8 kmh 29.95 in1014.2 mb 0.00 in0.0 mm 0.00 in0.0 mm 0.00 in0.0 mm
11:40 AM 69.2°F20.7°C 47.0°F8.3°C 46% 0.2 mph SW0.3 kmh SW 3.0 mph4.8 kmh 29.95 in1014.2 mb 0.00 in0.0 mm 0.00 in0.0 mm 0.00 in0.0 mm
11:50 AM 70.1°F21.2°C 48.0°F8.9°C 45% 0.5 mph S0.8 kmh S 2.0 mph3.2 kmh 29.94 in1013.9 mb 0.00 in0.0 mm 0.00 in0.0 mm 0.00 in0.0 mm
12:00 PM 70.2°F21.2°C 49.0°F9.4°C 47% 1.1 mph NE1.8 kmh NE 5.0 mph8.0 kmh 29.94 in1013.9 mb 0.00 in0.0 mm 0.00 in0.0 mm 0.00 in0.0 mm
12:10 PM 69.0°F20.6°C 48.0°F8.9°C 48% 1.7 mph NNE2.7 kmh NNE 4.0 mph6.4 kmh 29.93 in1013.5 mb 0.00 in0.0 mm 0.00 in0.0 mm 0.00 in0.0 mm
12:20 PM 68.8°F20.4°C 49.0°F9.4°C 50% 2.6 mph E4.2 kmh E 5.0 mph8.0 kmh 29.93 in1013.5 mb 0.00 in0.0 mm 0.00 in0.0 mm 0.00 in0.0 mm
12:30 PM 68.5°F20.3°C 49.0°F9.4°C 50% 3.2 mph NNE5.1 kmh NNE 8.0 mph12.9 kmh 29.93 in1013.5 mb 0.00 in0.0 mm 0.00 in0.0 mm 0.00 in0.0 mm
12:40 PM 68.0°F20.0°C 49.0°F9.4°C 51% 2.2 mph NNW3.5 kmh NNW 4.0 mph6.4 kmh 29.92 in1013.2 mb 0.00 in0.0 mm 0.00 in0.0 mm 0.00 in0.0 mm
12:50 PM 68.0°F20.0°C 49.0°F9.4°C 51% 2.3 mph NNE3.7 kmh NNE 5.0 mph8.0 kmh 29.92 in1013.2 mb 0.00 in0.0 mm 0.00 in0.0 mm 0.00 in0.0 mm
01:00 PM 67.7°F19.8°C 50.0°F10.0°C 53% 2.9 mph NNE4.7 kmh NNE 5.0 mph8.0 kmh 29.92 in1013.2 mb 0.00 in0.0 mm 0.00 in0.0 mm 0.00 in0.0 mm
01:20 PM 68.4°F20.2°C 50.0°F10.0°C 52% 1.7 mph SE2.7 kmh SE 5.0 mph8.0 kmh 29.91 in1012.9 mb 0.00 in0.0 mm 0.00 in0.0 mm 0.00 in0.0 mm
01:30 PM 68.0°F20.0°C 50.0°F10.0°C 53% 1.7 mph NW2.7 kmh NW 4.0 mph6.4 kmh 29.91 in1012.9 mb 0.00 in0.0 mm 0.00 in0.0 mm 0.00 in0.0 mm
01:40 PM 68.1°F20.1°C 50.0°F10.0°C 53% 1.5 mph NE2.4 kmh NE 3.0 mph4.8 kmh 29.91 in1012.9 mb 0.00 in0.0 mm 0.00 in0.0 mm 0.00 in0.0 mm
01:50 PM 68.1°F20.1°C 50.0°F10.0°C 52% 1.6 mph E2.6 kmh E 5.0 mph8.0 kmh 29.91 in1012.9 mb 0.00 in0.0 mm 0.00 in0.0 mm 0.00 in0.0 mm
02:00 PM 68.5°F20.3°C 50.0°F10.0°C 52% 1.2 mph N1.9 kmh N 3.0 mph4.8 kmh 29.90 in1012.5 mb 0.00 in0.0 mm 0.00 in0.0 mm 0.00 in0.0 mm
02:10 PM 68.6°F20.3°C 50.0°F10.0°C 52% 2.4 mph N3.9 kmh N 9.0 mph14.5 kmh 29.90 in1012.5 mb 0.00 in0.0 mm 0.00 in0.0 mm 0.00 in0.0 mm
02:20 PM 68.2°F20.1°C 50.0°F10.0°C 52% 3.6 mph N5.8 kmh N 7.0 mph11.3 kmh 29.90 in1012.5 mb 0.00 in0.0 mm 0.00 in0.0 mm 0.00 in0.0 mm
02:30 PM 68.4°F20.2°C 50.0°F10.0°C 53% 2.1 mph WNW3.4 kmh WNW 4.0 mph6.4 kmh 29.90 in1012.5 mb 0.00 in0.0 mm 0.00 in0.0 mm 0.00 in0.0 mm
02:40 PM 67.9°F19.9°C 49.0°F9.4°C 52% 2.1 mph WNW3.4 kmh WNW 6.0 mph9.7 kmh 29.91 in1012.9 mb 0.00 in0.0 mm 0.00 in0.0 mm 0.00 in0.0 mm
02:50 PM 67.2°F19.6°C 48.0°F8.9°C 51% 2.8 mph N4.5 kmh N 7.0 mph11.3 kmh 29.91 in1012.9 mb 0.00 in0.0 mm 0.00 in0.0 mm 0.00 in0.0 mm
03:00 PM 67.0°F19.4°C 47.0°F8.3°C 49% 1.8 mph WNW2.9 kmh WNW 6.0 mph9.7 kmh 29.92 in1013.2 mb 0.00 in0.0 mm 0.00 in0.0 mm 0.00 in0.0 mm
03:10 PM 66.7°F19.3°C 49.0°F9.4°C 54% 1.8 mph NNW2.9 kmh NNW 4.0 mph6.4 kmh 29.92 in1013.2 mb 0.00 in0.0 mm 0.00 in0.0 mm 0.00 in0.0 mm
03:20 PM 65.8°F18.8°C 50.0°F10.0°C 58% 1.4 mph NW2.3 kmh NW 5.0 mph8.0 kmh 29.91 in1012.9 mb 0.00 in0.0 mm 0.00 in0.0 mm 0.00 in0.0 mm
03:30 PM 64.7°F18.2°C 53.0°F11.7°C 66% 1.3 mph NW2.1 kmh NW 3.0 mph4.8 kmh 29.92 in1013.2 mb 0.00 in0.0 mm 0.00 in0.0 mm 0.00 in0.0 mm
03:40 PM 63.7°F17.6°C 54.0°F12.2°C 71% 1.0 mph NW1.6 kmh NW 4.0 mph6.4 kmh 29.91 in1012.9 mb 0.10 in2.5 mm 0.60 in15.2 mm 0.02 in0.5 mm
03:50 PM 62.8°F17.1°C 55.0°F12.8°C 75% 0.8 mph N1.3 kmh N 3.0 mph4.8 kmh 29.92 in1013.2 mb 0.10 in2.5 mm 0.00 in0.0 mm 0.03 in0.8 mm
04:00 PM 61.9°F16.6°C 55.0°F12.8°C 77% 2.1 mph N3.4 kmh N 4.0 mph6.4 kmh 29.91 in1012.9 mb 0.06 in1.5 mm 0.00 in0.0 mm 0.04 in1.0 mm
04:10 PM 61.2°F16.2°C 54.0°F12.2°C 78% 1.5 mph NNE2.4 kmh NNE 5.0 mph8.0 kmh 29.90 in1012.5 mb 0.08 in2.0 mm 0.12 in3.0 mm 0.05 in1.3 mm
04:20 PM 60.6°F15.9°C 53.0°F11.7°C 76% 4.1 mph NE6.6 kmh NE 8.0 mph12.9 kmh 29.89 in1012.2 mb 0.04 in1.0 mm 0.00 in0.0 mm 0.06 in1.5 mm
04:30 PM 60.4°F15.8°C 53.0°F11.7°C 77% 1.5 mph NE2.4 kmh NE 3.0 mph4.8 kmh 29.90 in1012.5 mb 0.04 in1.0 mm 0.00 in0.0 mm 0.06 in1.5 mm
04:40 PM 60.3°F15.7°C 53.0°F11.7°C 78% 2.1 mph ENE3.4 kmh ENE 6.0 mph9.7 kmh 29.89 in1012.2 mb 0.00 in0.0 mm 0.00 in0.0 mm 0.07 in1.8 mm
04:50 PM 60.2°F15.7°C 54.0°F12.2°C 80% 2.1 mph NE3.4 kmh NE 6.0 mph9.7 kmh 29.89 in1012.2 mb 0.00 in0.0 mm 0.00 in0.0 mm 0.07 in1.8 mm
05:00 PM 60.1°F15.6°C -1.0°F-18.3°C 80% - E E -- 29.89 in1012.2 mb 0.00 in0.0 mm 0.00 in0.0 mm 0.07 in1.8 mm
05:10 PM 60.0°F15.6°C 53.0°F11.7°C 79% 2.4 mph ENE3.9 kmh ENE 4.0 mph6.4 kmh 29.89 in1012.2 mb 0.00 in0.0 mm 0.00 in0.0 mm 0.07 in1.8 mm
05:20 PM 59.8°F15.4°C 53.0°F11.7°C 79% 2.1 mph E3.4 kmh E 5.0 mph8.0 kmh 29.88 in1011.9 mb 0.00 in0.0 mm 0.00 in0.0 mm 0.07 in1.8 mm
05:30 PM 59.6°F15.3°C 52.0°F11.1°C 77% 3.5 mph NE5.6 kmh NE 6.0 mph9.7 kmh 29.88 in1011.9 mb 0.00 in0.0 mm 0.00 in0.0 mm 0.07 in1.8 mm
05:40 PM 59.5°F15.3°C 52.0°F11.1°C 77% 2.4 mph ENE3.9 kmh ENE 6.0 mph9.7 kmh 29.88 in1011.9 mb 0.00 in0.0 mm 0.00 in0.0 mm 0.07 in1.8 mm
05:50 PM 59.4°F15.2°C 52.0°F11.1°C 77% 0.6 mph ESE1.0 kmh ESE 2.0 mph3.2 kmh 29.88 in1011.9 mb 0.00 in0.0 mm 0.00 in0.0 mm 0.07 in1.8 mm
06:00 PM 59.3°F15.2°C 52.0°F11.1°C 78% 0.5 mph ESE0.8 kmh ESE 2.0 mph3.2 kmh 29.88 in1011.9 mb 0.00 in0.0 mm 0.00 in0.0 mm 0.07 in1.8 mm
06:10 PM 59.2°F15.1°C 52.0°F11.1°C 78% 0.7 mph E1.1 kmh E 2.0 mph3.2 kmh 29.89 in1012.2 mb 0.00 in0.0 mm 0.00 in0.0 mm 0.07 in1.8 mm
06:20 PM 59.1°F15.1°C 52.0°F11.1°C 76% Calm Calm 1.0 mph1.6 kmh 29.89 in1012.2 mb 0.00 in0.0 mm 0.00 in0.0 mm 0.07 in1.8 mm
06:30 PM 59.0°F15.0°C 52.0°F11.1°C 78% Calm Calm 1.0 mph1.6 kmh 29.89 in1012.2 mb 0.00 in0.0 mm 0.00 in0.0 mm 0.07 in1.8 mm
06:40 PM 59.0°F15.0°C 52.0°F11.1°C 77% 0.4 mph W0.6 kmh W 2.0 mph3.2 kmh 29.89 in1012.2 mb 0.00 in0.0 mm 0.00 in0.0 mm 0.07 in1.8 mm
06:50 PM 59.1°F15.1°C 52.0°F11.1°C 77% 0.5 mph WNW0.8 kmh WNW 1.0 mph1.6 kmh 29.90 in1012.5 mb 0.00 in0.0 mm 0.00 in0.0 mm 0.07 in1.8 mm
07:00 PM 59.1°F15.1°C 51.0°F10.6°C 75% 0.4 mph W0.6 kmh W 2.0 mph3.2 kmh 29.89 in1012.2 mb 0.00 in0.0 mm 0.00 in0.0 mm 0.07 in1.8 mm
07:10 PM 59.0°F15.0°C 48.0°F8.9°C 68% 0.8 mph E1.3 kmh E 3.0 mph4.8 kmh 29.90 in1012.5 mb 0.00 in0.0 mm 0.00 in0.0 mm 0.07 in1.8 mm
07:20 PM 59.2°F15.1°C 49.0°F9.4°C 68% 1.4 mph ENE2.3 kmh ENE 3.0 mph4.8 kmh 29.90 in1012.5 mb 0.00 in0.0 mm 0.00 in0.0 mm 0.07 in1.8 mm
07:30 PM 59.2°F15.1°C 48.0°F8.9°C 67% 2.4 mph NE3.9 kmh NE 4.0 mph6.4 kmh 29.89 in1012.2 mb 0.00 in0.0 mm 0.00 in0.0 mm 0.07 in1.8 mm
07:40 PM 59.0°F15.0°C 49.0°F9.4°C 69% 0.8 mph SE1.3 kmh SE 3.0 mph4.8 kmh 29.90 in1012.5 mb 0.00 in0.0 mm 0.00 in0.0 mm 0.07 in1.8 mm
07:50 PM 58.7°F14.8°C 49.0°F9.4°C 70% Calm Calm -- 29.91 in1012.9 mb 0.00 in0.0 mm 0.00 in0.0 mm 0.07 in1.8 mm
08:00 PM 58.5°F14.7°C 49.0°F9.4°C 72% Calm Calm -- 29.91 in1012.9 mb 0.00 in0.0 mm 0.00 in0.0 mm 0.07 in1.8 mm
08:10 PM 58.2°F14.6°C 49.0°F9.4°C 72% Calm Calm -- 29.91 in1012.9 mb 0.00 in0.0 mm 0.00 in0.0 mm 0.07 in1.8 mm
08:20 PM 57.9°F14.4°C 50.0°F10.0°C 75% Calm Calm -- 29.91 in1012.9 mb 0.00 in0.0 mm 0.00 in0.0 mm 0.07 in1.8 mm
08:30 PM 57.8°F14.3°C 51.0°F10.6°C 79% 1.4 mph WNW2.3 kmh WNW 6.0 mph9.7 kmh 29.91 in1012.9 mb 0.00 in0.0 mm 0.00 in0.0 mm 0.07 in1.8 mm
08:40 PM 57.6°F14.2°C 52.0°F11.1°C 81% 1.1 mph W1.8 kmh W 3.0 mph4.8 kmh 29.91 in1012.9 mb 0.00 in0.0 mm 0.00 in0.0 mm 0.07 in1.8 mm
08:50 PM 57.4°F14.1°C 51.0°F10.6°C 78% 1.0 mph W1.6 kmh W 2.0 mph3.2 kmh 29.91 in1012.9 mb 0.00 in0.0 mm 0.00 in0.0 mm 0.07 in1.8 mm
09:00 PM 57.5°F14.2°C 50.0°F10.0°C 77% 0.2 mph W0.3 kmh W 1.0 mph1.6 kmh 29.91 in1012.9 mb 0.00 in0.0 mm 0.00 in0.0 mm 0.07 in1.8 mm
09:10 PM 57.4°F14.1°C 50.0°F10.0°C 77% Calm Calm -- 29.91 in1012.9 mb 0.00 in0.0 mm 0.00 in0.0 mm 0.07 in1.8 mm
09:20 PM 57.4°F14.1°C 50.0°F10.0°C 77% Calm Calm -- 29.90 in1012.5 mb 0.00 in0.0 mm 0.00 in0.0 mm 0.07 in1.8 mm
09:30 PM 57.4°F14.1°C 51.0°F10.6°C 78% Calm Calm -- 29.89 in1012.2 mb 0.00 in0.0 mm 0.00 in0.0 mm 0.07 in1.8 mm
09:40 PM 57.4°F14.1°C 51.0°F10.6°C 78% 0.5 mph W0.8 kmh W 2.0 mph3.2 kmh 29.89 in1012.2 mb 0.00 in0.0 mm 0.00 in0.0 mm 0.07 in1.8 mm
09:50 PM 57.4°F14.1°C 51.0°F10.6°C 79% 0.6 mph WSW1.0 kmh WSW 2.0 mph3.2 kmh 29.88 in1011.9 mb 0.00 in0.0 mm 0.00 in0.0 mm 0.07 in1.8 mm
10:00 PM 57.2°F14.0°C 51.0°F10.6°C 81% 0.6 mph SE1.0 kmh SE 3.0 mph4.8 kmh 29.87 in1011.5 mb 0.00 in0.0 mm 0.00 in0.0 mm 0.07 in1.8 mm
10:10 PM 57.2°F14.0°C 52.0°F11.1°C 82% 1.9 mph SSE3.1 kmh SSE 4.0 mph6.4 kmh 29.86 in1011.2 mb 0.00 in0.0 mm 0.00 in0.0 mm 0.07 in1.8 mm
10:20 PM 57.1°F13.9°C 52.0°F11.1°C 84% 2.4 mph SSE3.9 kmh SSE 4.0 mph6.4 kmh 29.87 in1011.5 mb 0.00 in0.0 mm 0.00 in0.0 mm 0.07 in1.8 mm
10:30 PM 56.9°F13.8°C 52.0°F11.1°C 84% 1.7 mph SSW2.7 kmh SSW 5.0 mph8.0 kmh 29.88 in1011.9 mb 0.00 in0.0 mm 0.00 in0.0 mm 0.08 in2.0 mm
10:40 PM 56.9°F13.8°C 52.0°F11.1°C 84% 1.2 mph SE1.9 kmh SE 3.0 mph4.8 kmh 29.86 in1011.2 mb 0.00 in0.0 mm 0.00 in0.0 mm 0.08 in2.0 mm
10:50 PM 56.8°F13.8°C 52.0°F11.1°C 84% 0.9 mph SW1.4 kmh SW 2.0 mph3.2 kmh 29.86 in1011.2 mb 0.00 in0.0 mm 0.00 in0.0 mm 0.08 in2.0 mm
11:00 PM 56.7°F13.7°C 52.0°F11.1°C 85% 1.0 mph SE1.6 kmh SE 3.0 mph4.8 kmh 29.85 in1010.8 mb 0.00 in0.0 mm 0.00 in0.0 mm 0.12 in3.0 mm
11:10 PM 56.6°F13.7°C 52.0°F11.1°C 85% 0.2 mph SE0.3 kmh SE 2.0 mph3.2 kmh 29.85 in1010.8 mb 0.00 in0.0 mm 0.00 in0.0 mm 0.12 in3.0 mm
11:20 PM 56.6°F13.7°C 53.0°F11.7°C 86% Calm Calm 1.0 mph1.6 kmh 29.84 in1010.5 mb 0.00 in0.0 mm 0.00 in0.0 mm 0.12 in3.0 mm
11:30 PM 56.5°F13.6°C 52.0°F11.1°C 86% 0.1 mph SE0.2 kmh SE 1.0 mph1.6 kmh 29.84 in1010.5 mb 0.00 in0.0 mm 0.00 in0.0 mm 0.12 in3.0 mm
11:40 PM 56.3°F13.5°C 53.0°F11.7°C 87% 0.4 mph W0.6 kmh W 1.0 mph1.6 kmh 29.84 in1010.5 mb 0.00 in0.0 mm 0.00 in0.0 mm 0.12 in3.0 mm
11:50 PM 56.3°F13.5°C 53.0°F11.7°C 87% 0.1 mph WNW0.2 kmh WNW 2.0 mph3.2 kmh 29.84 in1010.5 mb 0.00 in0.0 mm 0.00 in0.0 mm 0.12 in3.0 mm